Time;durP1;ratioP1;P1;durP2;ratioP2;P2;SDS_P1;SDS_P2;PMS_P1;PMS_P2;Temp;Humidity;BMP_temperature;BMP_pressure;BME280_temperature;BME280_humidity;BME280_pressure;Samples;Min_cycle;Max_cycle;Signal;HPM_P1;HPM_P2
2024/01/20 00:01:31;;;;;;;18.08;10.90;;;0.90;99.90;;;;;;5072226;28;20041;-70
2024/01/20 00:03:57;;;;;;;18.80;10.93;;;0.90;99.90;;;;;;5072162;28;20048;-70
2024/01/20 00:06:22;;;;;;;18.98;10.60;;;0.90;99.90;;;;;;5073653;28;20044;-70
2024/01/20 00:08:48;;;;;;;19.90;10.88;;;0.90;99.90;;;;;;5073261;28;20036;-70
2024/01/20 00:11:14;;;;;;;22.20;11.88;;;1.00;99.90;;;;;;5071846;28;20029;-70
2024/01/20 00:13:39;;;;;;;15.40;10.75;;;0.90;99.90;;;;;;5072407;28;20032;-70
2024/01/20 00:16:05;;;;;;;19.15;11.23;;;0.90;99.90;;;;;;5073174;28;20029;-70
2024/01/20 00:18:31;;;;;;;17.63;10.68;;;0.90;99.90;;;;;;5072015;28;20036;-71
2024/01/20 00:20:56;;;;;;;20.13;12.35;;;0.90;99.90;;;;;;5072215;28;20029;-70
2024/01/20 00:23:22;;;;;;;16.95;11.52;;;0.90;99.90;;;;;;5073173;28;20078;-71
2024/01/20 00:25:48;;;;;;;20.15;11.10;;;0.90;99.90;;;;;;5071859;28;20040;-70
2024/01/20 00:28:14;;;;;;;23.13;11.85;;;0.90;99.90;;;;;;5073413;28;20040;-70
2024/01/20 00:30:39;;;;;;;17.63;11.70;;;0.90;99.90;;;;;;5071802;28;20409;-70
2024/01/20 00:33:08;;;;;;;27.65;11.20;;;0.90;99.90;;;;;;5071842;28;20093;-70
2024/01/20 00:35:34;;;;;;;22.00;12.10;;;0.90;99.90;;;;;;5071762;28;20478;-70
2024/01/20 00:37:59;;;;;;;17.52;11.70;;;0.80;99.90;;;;;;5073323;28;20076;-70
2024/01/20 00:40:25;;;;;;;21.40;12.85;;;0.80;99.90;;;;;;5072062;28;20049;-70
2024/01/20 00:42:50;;;;;;;21.70;13.07;;;0.90;99.90;;;;;;5073282;28;20404;-70
2024/01/20 00:45:16;;;;;;;23.27;12.50;;;0.80;99.90;;;;;;5073333;28;20040;-70
2024/01/20 00:47:44;;;;;;;22.17;12.95;;;0.80;99.90;;;;;;5055038;28;20040;-70
2024/01/20 00:50:09;;;;;;;24.67;14.35;;;0.70;99.90;;;;;;5071718;28;20049;-70
2024/01/20 00:52:35;;;;;;;21.90;13.68;;;0.70;99.90;;;;;;5054941;28;20409;-70
2024/01/20 00:55:01;;;;;;;20.40;13.30;;;0.70;99.90;;;;;;5073095;28;20037;-70
2024/01/20 00:57:26;;;;;;;24.25;14.43;;;0.60;99.90;;;;;;5071920;28;20048;-71
2024/01/20 00:59:52;;;;;;;21.42;13.93;;;0.60;99.90;;;;;;5071633;28;20695;-71
2024/01/20 01:02:18;;;;;;;20.27;13.75;;;0.60;99.90;;;;;;5073084;28;20041;-70
2024/01/20 01:04:44;;;;;;;20.35;14.85;;;0.60;99.90;;;;;;5071773;28;20037;-70
2024/01/20 01:07:10;;;;;;;24.15;15.32;;;0.50;99.90;;;;;;5071726;28;20401;-70
2024/01/20 01:09:36;;;;;;;21.70;14.77;;;0.50;99.90;;;;;;5072950;28;20041;-70
2024/01/20 01:12:02;;;;;;;25.73;15.60;;;0.50;99.90;;;;;;5071763;28;20452;-70
2024/01/20 01:14:27;;;;;;;21.73;15.23;;;0.50;99.90;;;;;;5071644;28;20458;-71
2024/01/20 01:16:53;;;;;;;22.05;15.20;;;0.50;99.90;;;;;;5071483;28;20103;-71
2024/01/20 01:19:19;;;;;;;24.17;15.82;;;0.50;99.90;;;;;;5071393;28;20109;-70
2024/01/20 01:21:44;;;;;;;27.63;16.83;;;0.50;99.90;;;;;;5073914;28;20036;-70
2024/01/20 01:24:10;;;;;;;26.02;14.95;;;0.40;99.90;;;;;;5076339;28;20033;-71
2024/01/20 01:26:36;;;;;;;25.63;15.93;;;0.40;99.90;;;;;;5075185;28;20094;-71
2024/01/20 01:29:01;;;;;;;31.30;15.90;;;0.40;99.90;;;;;;5075298;28;20101;-70
2024/01/20 01:31:27;;;;;;;27.08;16.13;;;0.40;99.90;;;;;;5075097;28;20520;-70
2024/01/20 01:33:52;;;;;;;26.80;16.27;;;0.40;99.90;;;;;;5058639;28;20036;-70
2024/01/20 01:36:18;;;;;;;28.15;16.42;;;0.40;99.90;;;;;;5074807;28;20040;-70
2024/01/20 01:38:44;;;;;;;26.50;16.33;;;0.40;99.90;;;;;;5074936;28;20094;-70
2024/01/20 01:41:09;;;;;;;24.13;15.60;;;0.40;99.90;;;;;;5074886;28;20036;-70
2024/01/20 01:43:35;;;;;;;31.88;17.85;;;0.50;99.90;;;;;;5074990;28;20035;-70
2024/01/20 01:46:00;;;;;;;23.67;16.45;;;0.40;99.90;;;;;;5074789;28;20447;-70
2024/01/20 01:48:26;;;;;;;25.55;16.63;;;0.40;99.90;;;;;;5074706;28;20044;-70
2024/01/20 01:50:55;;;;;;;23.90;17.33;;;0.40;99.90;;;;;;5074741;28;20119;-70
2024/01/20 01:53:21;;;;;;;26.17;16.92;;;0.50;99.90;;;;;;5074699;28;20051;-70
2024/01/20 01:55:47;;;;;;;28.70;18.60;;;0.40;99.90;;;;;;5074545;28;20036;-70
2024/01/20 01:58:13;;;;;;;24.88;16.88;;;0.40;99.90;;;;;;5074574;28;20501;-70
2024/01/20 02:00:39;;;;;;;32.42;18.65;;;0.40;99.90;;;;;;5074523;28;20515;-71
2024/01/20 02:03:05;;;;;;;27.52;17.70;;;0.40;99.90;;;;;;5074526;28;20044;-70
2024/01/20 02:05:31;;;;;;;25.10;17.60;;;0.40;99.90;;;;;;5074770;28;20040;-70
2024/01/20 02:07:58;;;;;;;30.80;18.15;;;0.40;99.90;;;;;;5075943;28;20043;-70
2024/01/20 02:10:24;;;;;;;32.88;18.17;;;0.30;99.90;;;;;;5074308;28;20119;-71
2024/01/20 02:12:50;;;;;;;26.15;18.42;;;0.40;99.90;;;;;;5074582;28;20125;-70
2024/01/20 02:15:16;;;;;;;24.42;18.98;;;0.30;99.90;;;;;;5075707;28;20064;-71
2024/01/20 02:17:52;;;;;;;33.50;20.15;;;0.30;99.90;;;;;;5074612;28;20029;-70
2024/01/20 02:20:18;;;;;;;31.30;19.42;;;0.30;99.90;;;;;;5075310;28;20044;-70
2024/01/20 02:22:44;;;;;;;26.98;19.92;;;0.40;99.90;;;;;;5074441;28;20174;-70
2024/01/20 02:25:10;;;;;;;34.33;20.88;;;0.30;99.90;;;;;;5073993;28;20506;-70
2024/01/20 02:27:35;;;;;;;31.85;21.08;;;0.40;99.90;;;;;;5075549;28;20119;-71
2024/01/20 02:30:01;;;;;;;28.98;20.17;;;0.40;99.90;;;;;;5075478;28;20047;-70
2024/01/20 02:32:27;;;;;;;37.50;21.30;;;0.30;99.90;;;;;;5075273;28;20123;-70
2024/01/20 02:34:52;;;;;;;30.08;20.17;;;0.30;99.90;;;;;;5073835;28;20115;-70
2024/01/20 02:37:18;;;;;;;32.25;21.00;;;0.30;99.90;;;;;;5073857;28;20037;-70
2024/01/20 02:39:43;;;;;;;31.52;20.40;;;0.30;99.90;;;;;;5073818;28;20402;-70
2024/01/20 02:42:10;;;;;;;31.50;21.25;;;0.30;99.90;;;;;;5073763;28;20037;-70
2024/01/20 02:44:39;;;;;;;38.75;21.65;;;0.30;99.90;;;;;;5074806;28;20509;-70
2024/01/20 02:47:05;;;;;;;34.92;21.20;;;0.30;99.90;;;;;;5073699;28;20079;-70
2024/01/20 02:49:31;;;;;;;35.72;22.00;;;0.30;99.90;;;;;;5073568;28;20080;-70
2024/01/20 02:51:58;;;;;;;33.35;22.08;;;0.20;99.90;;;;;;5074424;28;20075;-70
2024/01/20 02:54:23;;;;;;;32.60;21.33;;;0.20;99.90;;;;;;5073460;28;20028;-71
2024/01/20 02:56:49;;;;;;;35.45;21.58;;;0.30;99.90;;;;;;5073736;28;20086;-70
2024/01/20 02:59:14;;;;;;;31.92;22.98;;;0.30;99.90;;;;;;5075013;28;20397;-70
2024/01/20 03:01:40;;;;;;;34.05;21.60;;;0.30;99.90;;;;;;5074891;28;20072;-70
2024/01/20 03:04:06;;;;;;;35.42;22.17;;;0.30;99.90;;;;;;5073313;28;20110;-70
2024/01/20 03:06:32;;;;;;;27.15;21.17;;;0.30;99.90;;;;;;5074826;28;20040;-70
2024/01/20 03:08:58;;;;;;;34.58;22.45;;;0.30;99.90;;;;;;5073425;28;20048;-70
2024/01/20 03:11:24;;;;;;;31.30;21.35;;;0.20;99.90;;;;;;5074738;28;20409;-70
2024/01/20 03:13:50;;;;;;;32.47;21.92;;;0.30;99.90;;;;;;5073458;28;20067;-70
2024/01/20 03:16:15;;;;;;;35.53;22.63;;;0.20;99.90;;;;;;5074550;28;20393;-70
2024/01/20 03:18:41;;;;;;;32.33;22.10;;;0.20;99.90;;;;;;5073071;28;20033;-70
2024/01/20 03:21:07;;;;;;;34.83;23.05;;;0.20;99.90;;;;;;5073016;28;20051;-70
2024/01/20 03:23:33;;;;;;;33.15;22.25;;;0.20;99.90;;;;;;5073228;28;20040;-70
2024/01/20 03:26:05;;;;;;;33.85;22.10;;;0.20;99.90;;;;;;5074416;28;20443;-70
2024/01/20 03:28:30;;;;;;;34.63;22.13;;;0.20;99.90;;;;;;5074355;28;20044;-70
2024/01/20 03:30:56;;;;;;;34.05;21.85;;;0.20;99.90;;;;;;5074347;28;20040;-70
2024/01/20 03:33:21;;;;;;;30.85;21.92;;;0.20;99.90;;;;;;5074297;28;20038;-70
2024/01/20 03:35:47;;;;;;;32.25;21.98;;;0.20;99.90;;;;;;5072639;28;20040;-70
2024/01/20 03:38:12;;;;;;;30.10;21.25;;;0.30;99.90;;;;;;5074166;28;20032;-71
2024/01/20 03:40:38;;;;;;;34.03;22.73;;;0.10;99.90;;;;;;5072637;28;20045;-70
2024/01/20 03:43:04;;;;;;;35.78;22.30;;;0.10;99.90;;;;;;5072857;28;20048;-70
2024/01/20 03:45:29;;;;;;;34.92;22.42;;;0.10;99.90;;;;;;5073049;28;20032;-70
2024/01/20 03:47:55;;;;;;;35.58;22.75;;;0.10;99.90;;;;;;5073024;28;20444;-70
2024/01/20 03:50:20;;;;;;;34.40;23.05;;;0.10;99.90;;;;;;5073898;28;20041;-70
2024/01/20 03:52:47;;;;;;;34.00;23.17;;;0.10;99.90;;;;;;5072412;28;20072;-70
2024/01/20 03:55:12;;;;;;;31.92;21.73;;;0.10;99.90;;;;;;5073443;28;20378;-70
2024/01/20 03:57:38;;;;;;;34.20;21.45;;;0.10;99.90;;;;;;5072333;28;20043;-70
2024/01/20 04:00:04;;;;;;;35.40;22.83;;;0.00;99.90;;;;;;5073834;28;20041;-70
2024/01/20 04:02:30;;;;;;;31.75;21.70;;;0.10;99.90;;;;;;5072246;28;20044;-70
2024/01/20 04:04:56;;;;;;;33.63;21.50;;;0.20;99.90;;;;;;5073674;28;20051;-70
2024/01/20 04:07:21;;;;;;;32.97;21.67;;;0.20;99.90;;;;;;5072175;28;20043;-70
2024/01/20 04:09:47;;;;;;;34.90;22.33;;;0.10;99.90;;;;;;5055591;28;20128;-70
2024/01/20 04:12:13;;;;;;;37.03;22.08;;;0.20;99.90;;;;;;5073646;28;20397;-70
2024/01/20 04:14:38;;;;;;;32.95;21.25;;;0.10;99.90;;;;;;5072003;28;20098;-70
2024/01/20 04:17:04;;;;;;;36.80;21.75;;;0.10;99.90;;;;;;5072070;28;20092;-70
2024/01/20 04:19:29;;;;;;;33.65;21.33;;;0.30;99.90;;;;;;5072025;28;20522;-71
2024/01/20 04:21:55;;;;;;;39.28;22.48;;;0.20;99.90;;;;;;5072018;28;20044;-71
2024/01/20 04:24:20;;;;;;;36.08;21.95;;;0.30;99.90;;;;;;5073448;28;20117;-71
2024/01/20 04:26:46;;;;;;;36.33;21.55;;;0.30;99.90;;;;;;5071952;28;20040;-71
2024/01/20 04:29:12;;;;;;;37.38;22.20;;;0.30;99.90;;;;;;5071823;28;20045;-71
2024/01/20 04:31:37;;;;;;;37.92;21.83;;;0.20;99.90;;;;;;5071880;28;20068;-71
2024/01/20 04:34:04;;;;;;;36.17;21.92;;;0.20;99.90;;;;;;5072016;28;20032;-70
2024/01/20 04:36:30;;;;;;;34.83;22.02;;;0.10;99.90;;;;;;5071850;28;20044;-70
2024/01/20 04:38:55;;;;;;;35.00;21.88;;;0.10;99.90;;;;;;5071839;28;20044;-70
2024/01/20 04:41:21;;;;;;;37.47;22.25;;;0.20;99.90;;;;;;5072076;28;20113;-70
2024/01/20 04:43:47;;;;;;;38.15;22.65;;;0.20;99.90;;;;;;5071902;28;20055;-71
2024/01/20 04:46:12;;;;;;;36.20;22.30;;;0.10;99.90;;;;;;5071708;28;20127;-71
2024/01/20 04:48:38;;;;;;;41.10;23.63;;;0.00;99.90;;;;;;5071912;28;20032;-70
2024/01/20 04:51:04;;;;;;;38.88;22.92;;;0.00;99.90;;;;;;5071701;28;20382;-70
2024/01/20 04:53:29;;;;;;;37.40;22.92;;;0.00;99.90;;;;;;5071663;28;20120;-70
2024/01/20 04:55:55;;;;;;;40.80;23.67;;;0.00;99.90;;;;;;5072813;28;20044;-70
2024/01/20 04:58:20;;;;;;;39.95;23.13;;;-0.10;99.90;;;;;;5076967;28;20043;-70
2024/01/20 05:00:46;;;;;;;42.88;22.92;;;-0.10;99.90;;;;;;5075724;28;20067;-70
2024/01/20 05:03:11;;;;;;;43.58;24.83;;;-0.10;99.90;;;;;;5076895;28;20074;-70
2024/01/20 05:05:39;;;;;;;41.30;23.40;;;-0.10;99.90;;;;;;5075539;28;20051;-70
2024/01/20 05:08:05;;;;;;;43.65;24.80;;;-0.10;99.90;;;;;;5075594;28;20051;-70
2024/01/20 05:10:30;;;;;;;45.10;24.75;;;-0.10;99.90;;;;;;5075517;28;20048;-70
2024/01/20 05:12:56;;;;;;;41.13;24.77;;;-0.10;99.90;;;;;;5076998;28;20044;-70
2024/01/20 05:15:21;;;;;;;44.42;25.50;;;-0.10;99.90;;;;;;5075342;28;20033;-70
2024/01/20 05:17:47;;;;;;;44.80;24.65;;;-0.10;99.90;;;;;;5058714;28;20040;-70
2024/01/20 05:20:14;;;;;;;48.38;25.75;;;-0.20;99.90;;;;;;5075351;28;20036;-70
2024/01/20 05:22:41;;;;;;;44.65;25.77;;;-0.20;99.90;;;;;;5076795;28;20123;-70
2024/01/20 05:25:07;;;;;;;47.97;26.13;;;-0.20;99.90;;;;;;5075184;28;20052;-70
2024/01/20 05:27:32;;;;;;;47.72;26.38;;;-0.20;99.90;;;;;;5075199;28;20040;-70
2024/01/20 05:29:58;;;;;;;47.55;26.77;;;-0.20;99.90;;;;;;5075084;28;20032;-70
2024/01/20 05:32:23;;;;;;;45.25;26.30;;;-0.20;99.90;;;;;;5076562;28;20032;-70
2024/01/20 05:34:49;;;;;;;54.70;27.25;;;-0.30;99.90;;;;;;5074957;28;20039;-70
2024/01/20 05:37:15;;;;;;;48.75;26.88;;;-0.30;99.90;;;;;;5076543;28;20098;-70
2024/01/20 05:39:41;;;;;;;51.53;26.80;;;-0.40;99.90;;;;;;5074949;28;20040;-70
2024/01/20 05:42:07;;;;;;;53.33;27.30;;;-0.30;99.90;;;;;;5074886;28;20043;-70
2024/01/20 05:44:32;;;;;;;49.92;27.92;;;-0.40;99.90;;;;;;5075962;28;20041;-71
2024/01/20 05:46:58;;;;;;;52.28;26.48;;;-0.30;99.90;;;;;;5076338;28;20032;-71
2024/01/20 05:49:23;;;;;;;47.53;26.25;;;-0.30;99.90;;;;;;5074883;28;20167;-70
2024/01/20 05:51:49;;;;;;;53.22;26.60;;;-0.30;99.90;;;;;;5076252;28;20032;-70
2024/01/20 05:54:14;;;;;;;50.22;26.73;;;-0.40;99.90;;;;;;5076159;28;20389;-70
2024/01/20 05:56:40;;;;;;;49.13;28.27;;;-0.30;99.90;;;;;;5076118;28;20064;-70
2024/01/20 05:59:05;;;;;;;49.78;26.67;;;-0.30;99.90;;;;;;5074618;28;20040;-70
2024/01/20 06:01:31;;;;;;;50.50;28.42;;;-0.30;99.90;;;;;;5075109;28;20048;-70
2024/01/20 06:03:57;;;;;;;48.83;26.67;;;-0.40;99.90;;;;;;5074787;28;20047;-70
2024/01/20 06:06:22;;;;;;;47.42;27.33;;;-0.40;99.90;;;;;;5074396;28;20413;-70
2024/01/20 06:08:48;;;;;;;49.17;26.83;;;-0.30;99.90;;;;;;5073756;28;20128;-71
2024/01/20 06:11:13;;;;;;;49.20;26.52;;;-0.30;99.90;;;;;;5075591;28;20037;-71
2024/01/20 06:13:39;;;;;;;52.70;27.30;;;-0.40;99.90;;;;;;5074371;28;20044;-71
2024/01/20 06:16:06;;;;;;;52.75;26.65;;;-0.30;99.90;;;;;;5074521;28;20040;-71
2024/01/20 06:18:31;;;;;;;46.78;26.25;;;-0.40;99.90;;;;;;5075762;28;20089;-70
2024/01/20 06:20:59;;;;;;;43.20;25.52;;;-0.40;99.90;;;;;;5075739;28;20036;-70
2024/01/20 06:23:25;;;;;;;46.33;26.63;;;-0.40;99.90;;;;;;5074131;28;20040;-70
2024/01/20 06:25:51;;;;;;;46.08;26.27;;;-0.40;99.90;;;;;;5074325;28;20041;-70
2024/01/20 06:28:17;;;;;;;48.50;26.92;;;-0.40;99.90;;;;;;5075549;28;20512;-70
2024/01/20 06:30:46;;;;;;;51.58;27.48;;;-0.40;99.90;;;;;;5073942;28;20040;-70
2024/01/20 06:33:11;;;;;;;47.53;26.92;;;-0.50;99.90;;;;;;5074339;28;20040;-70
2024/01/20 06:35:37;;;;;;;52.40;26.67;;;-0.50;99.90;;;;;;5074118;28;20037;-70
2024/01/20 06:38:03;;;;;;;48.10;26.70;;;-0.40;99.90;;;;;;5073925;28;20047;-70
2024/01/20 06:40:29;;;;;;;48.97;27.02;;;-0.40;99.90;;;;;;5073909;28;20060;-70
2024/01/20 06:42:54;;;;;;;46.08;26.75;;;-0.40;99.90;;;;;;5075342;28;20041;-70
2024/01/20 06:45:20;;;;;;;43.78;27.00;;;-0.40;99.90;;;;;;5074831;28;20448;-71
2024/01/20 06:47:46;;;;;;;51.72;27.58;;;-0.40;99.90;;;;;;5075587;28;20077;-71
2024/01/20 06:50:12;;;;;;;50.78;26.33;;;-0.40;99.90;;;;;;5075138;28;20485;-71
2024/01/20 06:52:38;;;;;;;54.72;26.92;;;-0.40;99.90;;;;;;5075160;28;20032;-70
2024/01/20 06:55:05;;;;;;;42.40;26.20;;;-0.50;99.90;;;;;;5074689;28;20043;-70
2024/01/20 06:57:30;;;;;;;51.25;27.10;;;-0.40;99.90;;;;;;5057141;28;20075;-71
2024/01/20 06:59:56;;;;;;;54.75;27.58;;;-0.30;99.90;;;;;;5073502;28;20091;-70
2024/01/20 07:02:22;;;;;;;50.80;24.88;;;-0.30;99.90;;;;;;5074966;28;20037;-70
2024/01/20 07:04:47;;;;;;;47.95;25.08;;;-0.30;99.90;;;;;;5073303;28;20060;-70
2024/01/20 07:07:13;;;;;;;44.95;24.40;;;-0.30;99.90;;;;;;5073314;28;20040;-70
2024/01/20 07:09:39;;;;;;;47.67;26.27;;;-0.40;99.90;;;;;;5073371;28;20047;-70
2024/01/20 07:12:06;;;;;;;48.17;25.48;;;-0.40;99.90;;;;;;5074740;28;20047;-71
2024/01/20 07:14:32;;;;;;;46.22;24.35;;;-0.30;99.90;;;;;;5073405;28;20037;-71
2024/01/20 07:16:57;;;;;;;51.33;25.95;;;-0.30;99.90;;;;;;5074672;28;20374;-71
2024/01/20 07:19:23;;;;;;;45.75;25.15;;;-0.40;99.90;;;;;;5072142;28;20037;-70
2024/01/20 07:21:48;;;;;;;51.08;25.55;;;-0.40;99.90;;;;;;5073294;28;20099;-70
2024/01/20 07:24:14;;;;;;;46.03;24.52;;;-0.40;99.90;;;;;;5073216;28;20513;-70
2024/01/20 07:26:39;;;;;;;49.10;25.33;;;-0.30;99.90;;;;;;5072905;28;20051;-71
2024/01/20 07:29:05;;;;;;;45.28;24.80;;;-0.30;99.90;;;;;;5073161;28;20037;-71
2024/01/20 07:31:31;;;;;;;48.58;25.55;;;-0.30;99.90;;;;;;5074366;28;20094;-71
2024/01/20 07:33:56;;;;;;;45.55;23.98;;;-0.30;99.90;;;;;;5073997;28;20114;-70
2024/01/20 07:36:22;;;;;;;45.28;24.60;;;-0.20;99.90;;;;;;5072873;28;20044;-71
2024/01/20 07:38:47;;;;;;;52.33;25.60;;;-0.20;99.90;;;;;;5072949;28;20452;-70
2024/01/20 07:41:13;;;;;;;41.03;24.75;;;-0.20;99.90;;;;;;5072964;28;20044;-70
2024/01/20 07:43:39;;;;;;;41.55;24.23;;;-0.10;99.90;;;;;;5073941;28;20573;-70
2024/01/20 07:46:04;;;;;;;45.55;25.23;;;-0.10;99.90;;;;;;5072532;28;20044;-70
2024/01/20 07:48:30;;;;;;;49.20;24.70;;;-0.20;99.90;;;;;;5074023;28;20056;-70
2024/01/20 07:50:56;;;;;;;48.22;24.70;;;-0.10;99.90;;;;;;5073913;28;20125;-70
2024/01/20 07:53:21;;;;;;;46.88;24.75;;;-0.10;99.90;;;;;;5073949;28;20037;-70
2024/01/20 07:55:48;;;;;;;46.60;25.30;;;-0.20;99.90;;;;;;5072584;28;20040;-70
2024/01/20 07:58:14;;;;;;;46.13;26.08;;;-0.10;99.90;;;;;;5072583;28;20123;-70
2024/01/20 08:00:40;;;;;;;46.58;25.33;;;0.00;99.90;;;;;;5072296;28;20566;-70
2024/01/20 08:03:05;;;;;;;45.75;24.75;;;0.00;99.90;;;;;;5072248;28;20051;-70
2024/01/20 08:05:32;;;;;;;48.88;25.35;;;0.00;99.90;;;;;;5072440;28;20041;-70
2024/01/20 08:07:57;;;;;;;44.88;24.48;;;0.00;99.90;;;;;;5073708;28;20048;-70
2024/01/20 08:10:23;;;;;;;46.22;24.60;;;0.10;99.90;;;;;;5073588;28;20047;-71
2024/01/20 08:12:51;;;;;;;45.72;26.23;;;0.10;99.90;;;;;;5072117;28;20040;-70
2024/01/20 08:15:17;;;;;;;48.40;25.20;;;0.20;99.90;;;;;;5072668;28;20403;-70
2024/01/20 08:17:42;;;;;;;49.45;24.95;;;0.20;99.90;;;;;;5072395;28;20041;-70
2024/01/20 08:20:09;;;;;;;44.97;24.20;;;0.20;99.90;;;;;;5073553;28;20049;-70
2024/01/20 08:22:34;;;;;;;43.92;23.67;;;0.40;99.90;;;;;;5073546;28;20040;-71
2024/01/20 08:25:03;;;;;;;40.45;24.02;;;0.40;99.90;;;;;;5072064;28;20123;-70
2024/01/20 08:27:28;;;;;;;43.45;24.23;;;0.40;99.90;;;;;;5071967;28;20044;-70
2024/01/20 08:29:54;;;;;;;43.97;23.25;;;0.40;99.90;;;;;;5071903;28;20044;-70
2024/01/20 08:32:19;;;;;;;42.35;23.52;;;0.50;99.90;;;;;;5071704;28;20109;-70
2024/01/20 08:34:45;;;;;;;43.30;22.80;;;0.60;99.90;;;;;;5073325;28;20036;-71
2024/01/20 08:37:11;;;;;;;42.15;22.85;;;0.60;99.90;;;;;;5073357;28;20047;-71
2024/01/20 08:39:37;;;;;;;42.15;22.58;;;0.60;99.90;;;;;;5071868;28;20047;-70
2024/01/20 08:42:03;;;;;;;45.40;23.92;;;0.70;99.90;;;;;;5073306;28;20089;-70
2024/01/20 08:44:30;;;;;;;40.88;22.92;;;0.80;99.90;;;;;;5072937;28;20116;-70
2024/01/20 08:46:55;;;;;;;39.55;22.65;;;0.80;99.90;;;;;;5073292;28;20048;-70
2024/01/20 08:49:22;;;;;;;41.35;22.40;;;0.80;99.90;;;;;;5071697;28;20129;-70
2024/01/20 08:51:47;;;;;;;42.92;22.38;;;0.90;99.90;;;;;;5073219;28;20374;-70
2024/01/20 08:54:13;;;;;;;41.08;23.10;;;0.90;99.90;;;;;;5071872;28;20043;-70
2024/01/20 08:56:39;;;;;;;39.30;22.42;;;0.90;99.90;;;;;;5071676;28;20453;-71
2024/01/20 08:59:04;;;;;;;42.45;22.25;;;0.80;99.90;;;;;;5055502;28;20044;-71
2024/01/20 09:01:30;;;;;;;43.38;22.98;;;0.80;99.90;;;;;;5071707;28;20524;-70
2024/01/20 09:03:56;;;;;;;40.75;23.05;;;0.90;99.90;;;;;;5071675;28;20089;-70
2024/01/20 09:06:22;;;;;;;42.80;22.40;;;0.80;99.90;;;;;;5071444;28;20048;-70
2024/01/20 09:08:47;;;;;;;39.45;21.70;;;0.80;99.90;;;;;;5071502;28;20052;-71
2024/01/20 09:11:13;;;;;;;40.05;23.15;;;0.80;99.90;;;;;;5071777;28;20040;-71
2024/01/20 09:13:38;;;;;;;41.95;21.10;;;0.80;99.90;;;;;;5073032;28;20508;-70
2024/01/20 09:16:04;;;;;;;43.42;22.83;;;0.80;99.90;;;;;;5072936;28;20033;-70
2024/01/20 09:18:30;;;;;;;39.92;22.30;;;0.90;99.90;;;;;;5071429;28;20033;-70
2024/01/20 09:20:55;;;;;;;36.90;21.08;;;0.90;99.90;;;;;;5071402;28;20524;-70
2024/01/20 09:23:21;;;;;;;40.38;22.45;;;0.80;99.90;;;;;;5071501;28;20036;-71
2024/01/20 09:25:47;;;;;;;37.90;22.23;;;0.80;99.90;;;;;;5071349;28;20049;-70
2024/01/20 09:28:14;;;;;;;42.05;22.55;;;0.80;99.90;;;;;;5071355;28;20052;-70
2024/01/20 09:30:39;;;;;;;38.45;22.00;;;0.90;99.90;;;;;;5071284;28;20119;-70
2024/01/20 09:33:05;;;;;;;36.95;20.40;;;0.90;99.90;;;;;;5072817;28;20117;-70
2024/01/20 09:35:31;;;;;;;40.38;22.63;;;0.90;99.90;;;;;;5072735;28;20111;-70
2024/01/20 09:37:57;;;;;;;37.28;22.08;;;1.00;99.90;;;;;;5072817;28;20075;-70
2024/01/20 09:40:23;;;;;;;35.97;20.60;;;1.00;99.90;;;;;;5072473;28;20454;-70
2024/01/20 09:42:49;;;;;;;37.58;20.45;;;1.00;99.90;;;;;;5072488;28;20127;-70
2024/01/20 09:45:14;;;;;;;34.67;19.58;;;1.00;99.90;;;;;;5074758;28;20044;-70
2024/01/20 09:47:40;;;;;;;37.22;20.23;;;1.10;99.90;;;;;;5074856;28;20115;-70
2024/01/20 09:50:06;;;;;;;38.95;22.77;;;1.10;99.90;;;;;;5058007;28;20081;-70
2024/01/20 09:52:35;;;;;;;38.40;20.17;;;1.10;99.90;;;;;;5075002;28;20391;-70
2024/01/20 09:55:11;;;;;;;34.38;19.40;;;1.20;99.90;;;;;;5074603;28;20447;-70
2024/01/20 09:57:41;;;;;;;36.78;20.80;;;1.20;99.90;;;;;;5074979;28;20094;-73
2024/01/20 10:00:08;;;;;;;34.95;20.13;;;1.20;99.90;;;;;;5076653;28;20093;-71
2024/01/20 10:02:35;;;;;;;41.03;21.20;;;1.20;99.90;;;;;;5074612;28;20539;-71
2024/01/20 10:05:05;;;;;;;33.85;19.35;;;1.20;99.90;;;;;;5076126;28;20111;-71
2024/01/20 10:07:31;;;;;;;38.78;20.05;;;1.30;99.90;;;;;;5076090;28;20038;-71
2024/01/20 10:09:57;;;;;;;33.05;18.70;;;1.20;99.90;;;;;;5075324;28;20109;-70
2024/01/20 10:12:26;;;;;;;33.90;19.95;;;1.30;99.90;;;;;;5074435;28;20040;-70
2024/01/20 10:14:52;;;;;;;33.17;20.10;;;1.30;99.90;;;;;;5075813;28;20064;-71
2024/01/20 10:17:18;;;;;;;37.38;20.15;;;1.30;99.90;;;;;;5074313;28;20043;-71
2024/01/20 10:19:44;;;;;;;34.53;18.63;;;1.30;99.90;;;;;;5074313;28;20521;-71
2024/01/20 10:22:11;;;;;;;36.83;19.88;;;1.40;99.90;;;;;;5075768;28;20041;-71
2024/01/20 10:24:52;;;;;;;35.45;19.33;;;1.40;99.90;;;;;;5074092;28;20401;-71
2024/01/20 10:27:23;;;;;;;34.60;19.27;;;1.40;99.90;;;;;;5074386;28;20047;-71
2024/01/20 10:29:49;;;;;;;37.58;19.40;;;1.40;99.90;;;;;;5075567;28;20048;-71
2024/01/20 10:32:16;;;;;;;30.95;18.48;;;1.40;99.90;;;;;;5075595;28;20044;-74
2024/01/20 10:34:42;;;;;;;35.63;20.48;;;1.40;99.90;;;;;;5075473;28;20044;-73
2024/01/20 10:37:10;;;;;;;33.70;18.83;;;1.40;99.90;;;;;;5075482;28;20126;-71
2024/01/20 10:39:44;;;;;;;32.10;18.15;;;1.50;99.90;;;;;;5075423;28;20082;-72
2024/01/20 10:42:15;;;;;;;29.90;18.13;;;1.50;99.90;;;;;;5074094;28;20037;-71
2024/01/20 10:45:12;;;;;;;33.65;19.20;;;1.50;99.90;;;;;;5073971;28;20076;-73
2024/01/20 10:47:44;;;;;;;33.03;19.00;;;1.50;99.90;;;;;;5050987;28;20051;-74
2024/01/20 10:50:10;;;;;;;32.33;18.95;;;1.60;99.90;;;;;;5075179;28;20044;-72
2024/01/20 10:52:38;;;;;;;33.50;19.17;;;1.60;99.90;;;;;;5073686;28;20410;-73
2024/01/20 10:55:05;;;;;;;32.88;19.35;;;1.60;99.90;;;;;;5073445;28;20515;-73
2024/01/20 10:57:31;;;;;;;35.63;19.40;;;1.60;99.90;;;;;;5073554;28;20048;-73
2024/01/20 10:59:59;;;;;;;35.08;19.17;;;1.60;99.90;;;;;;5073482;28;20047;-73
2024/01/20 11:02:25;;;;;;;31.45;18.58;;;1.60;99.90;;;;;;5074989;28;20047;-73
2024/01/20 11:04:51;;;;;;;37.47;19.52;;;1.60;99.90;;;;;;5074858;28;20040;-73
2024/01/20 11:07:24;;;;;;;32.35;19.88;;;1.60;99.90;;;;;;5074851;28;20111;-74
2024/01/20 11:09:56;;;;;;;33.07;18.73;;;1.60;99.90;;;;;;5074762;28;20037;-74
2024/01/20 11:12:23;;;;;;;32.08;18.35;;;1.60;99.90;;;;;;5073294;28;20101;-73
2024/01/20 11:14:53;;;;;;;33.80;19.58;;;1.60;99.90;;;;;;5074602;28;20046;-74
2024/01/20 11:17:20;;;;;;;31.20;19.02;;;1.70;99.90;;;;;;5073450;28;20040;-73
2024/01/20 11:19:45;;;;;;;34.05;19.15;;;1.70;99.90;;;;;;5074607;28;20170;-71
2024/01/20 11:22:30;;;;;;;31.40;18.42;;;1.70;99.90;;;;;;5073267;28;20497;-71
2024/01/20 11:24:56;;;;;;;35.17;19.40;;;1.70;99.90;;;;;;5074563;28;20115;-71
2024/01/20 11:27:22;;;;;;;34.67;19.27;;;1.70;99.90;;;;;;5074353;28;20120;-71
2024/01/20 11:29:47;;;;;;;29.95;19.27;;;1.70;99.90;;;;;;5074369;28;20044;-71
2024/01/20 11:32:13;;;;;;;33.15;19.80;;;1.70;99.90;;;;;;5072879;28;20040;-71
2024/01/20 11:34:40;;;;;;;31.67;19.95;;;1.70;99.90;;;;;;5074268;28;20055;-71
2024/01/20 11:37:08;;;;;;;35.92;20.52;;;1.70;99.90;;;;;;5072752;28;20037;-71
2024/01/20 11:39:34;;;;;;;35.80;20.73;;;1.70;99.90;;;;;;5072709;28;20071;-71
2024/01/20 11:42:03;;;;;;;38.50;22.20;;;1.70;99.90;;;;;;5074140;28;20045;-71
2024/01/20 11:44:31;;;;;;;32.47;20.10;;;1.70;99.90;;;;;;5072299;28;20521;-71
2024/01/20 11:47:00;;;;;;;35.88;20.80;;;1.70;99.90;;;;;;5074069;28;20044;-70
2024/01/20 11:49:27;;;;;;;36.20;20.98;;;1.70;99.90;;;;;;5074226;28;20068;-70
2024/01/20 11:51:53;;;;;;;31.77;19.42;;;1.70;99.90;;;;;;5072440;28;20097;-70
2024/01/20 11:54:18;;;;;;;32.95;20.67;;;1.70;99.90;;;;;;5072361;28;20032;-71
2024/01/20 11:56:44;;;;;;;34.28;20.90;;;1.70;99.90;;;;;;5072639;28;20086;-71
2024/01/20 11:59:09;;;;;;;34.60;20.65;;;1.70;99.90;;;;;;5073870;28;20119;-71
2024/01/20 12:01:36;;;;;;;35.50;21.02;;;1.80;99.90;;;;;;5072296;28;20046;-71
2024/01/20 12:04:02;;;;;;;38.95;21.10;;;1.80;99.90;;;;;;5072318;28;20076;-71
2024/01/20 12:06:28;;;;;;;36.25;20.50;;;1.80;99.90;;;;;;5073406;28;20119;-71
2024/01/20 12:08:56;;;;;;;37.75;21.60;;;1.80;99.90;;;;;;5072637;28;20540;-71
2024/01/20 12:11:23;;;;;;;35.30;20.13;;;1.80;99.90;;;;;;5073851;28;20036;-71
2024/01/20 12:13:48;;;;;;;35.85;20.55;;;1.90;99.90;;;;;;5072423;28;20045;-71
2024/01/20 12:16:15;;;;;;;37.55;21.75;;;1.90;99.90;;;;;;5072217;28;20032;-71
2024/01/20 12:18:41;;;;;;;36.30;20.67;;;1.90;99.90;;;;;;5073648;28;20044;-71
2024/01/20 12:21:06;;;;;;;36.97;20.60;;;1.90;99.90;;;;;;5073582;28;20042;-71
2024/01/20 12:23:34;;;;;;;36.17;21.50;;;1.90;99.90;;;;;;5073573;28;20040;-71
2024/01/20 12:26:00;;;;;;;32.70;19.70;;;1.90;99.90;;;;;;5072179;28;20119;-71
2024/01/20 12:28:25;;;;;;;33.78;20.85;;;1.90;99.90;;;;;;5073485;28;20512;-71